Time;durP1;ratioP1;P1;durP2;ratioP2;P2;SDS_P1;SDS_P2;PMS_P1;PMS_P2;Temp;Humidity;BMP_temperature;BMP_pressure;BME280_temperature;BME280_humidity;BME280_pressure;Samples;Min_cycle;Max_cycle;Signal;HPM_P1;HPM_P2
2022/06/07 00:00:31;;;;;;;4.95;3.47;;;;;;;17.06;100.00;99828.50;6216112;23;20020;-86
2022/06/07 00:02:57;;;;;;;4.32;3.47;;;;;;;16.94;100.00;99816.34;6242395;23;20054;-86
2022/06/07 00:05:23;;;;;;;5.05;3.30;;;;;;;16.97;100.00;99825.81;6242963;23;20012;-86
2022/06/07 00:07:49;;;;;;;4.10;3.70;;;;;;;16.96;100.00;99818.66;6242810;23;20012;-86
2022/06/07 00:10:15;;;;;;;5.60;3.50;;;;;;;16.94;100.00;99807.16;6216182;23;20069;-86
2022/06/07 00:12:41;;;;;;;5.10;3.65;;;;;;;16.81;100.00;99812.31;6215834;23;20560;-86
2022/06/07 00:15:07;;;;;;;4.53;3.83;;;;;;;16.74;100.00;99819.09;6243194;23;20012;-86
2022/06/07 00:17:32;;;;;;;7.00;3.47;;;;;;;16.77;100.00;99818.88;6215969;23;20338;-85
2022/06/07 00:20:01;;;;;;;6.43;3.80;;;;;;;16.71;100.00;99803.22;6242876;23;20078;-86
2022/06/07 00:22:27;;;;;;;4.88;3.42;;;;;;;16.74;100.00;99786.22;6241813;23;20446;-86
2022/06/07 00:24:52;;;;;;;6.43;3.60;;;;;;;16.73;100.00;99804.31;6240832;23;20062;-86
2022/06/07 00:27:19;;;;;;;4.93;3.08;;;;;;;16.71;100.00;99815.19;6214772;23;20012;-86
2022/06/07 00:29:46;;;;;;;6.60;3.67;;;;;;;16.67;100.00;99805.44;6187828;23;20070;-86
2022/06/07 00:32:13;;;;;;;5.65;3.20;;;;;;;16.69;100.00;99803.72;6214410;23;20070;-86
2022/06/07 00:34:38;;;;;;;7.13;3.47;;;;;;;16.71;100.00;99798.41;6212574;23;20012;-86
2022/06/07 00:37:04;;;;;;;6.45;3.33;;;;;;;16.69;100.00;99784.13;6213751;23;20008;-87
2022/06/07 00:39:30;;;;;;;5.97;3.60;;;;;;;16.72;100.00;99787.97;6240400;23;20012;-87
2022/06/07 00:41:55;;;;;;;4.28;3.50;;;;;;;16.63;100.00;99786.03;6242696;23;20012;-86
2022/06/07 00:44:21;;;;;;;5.47;3.28;;;;;;;16.62;100.00;99789.34;6242720;23;20469;-86
2022/06/07 00:47:03;;;;;;;5.28;3.40;;;;;;;16.62;100.00;99789.34;6243433;23;20094;-80
2022/06/07 00:49:38;;;;;;;5.40;3.27;;;;;;;16.59;100.00;99779.88;6216582;23;20019;-80
2022/06/07 00:52:04;;;;;;;5.50;3.42;;;;;;;16.57;100.00;99764.81;6216153;23;20012;-80
2022/06/07 00:54:32;;;;;;;7.72;3.63;;;;;;;16.61;100.00;99782.97;6214620;23;20012;-80
2022/06/07 00:57:05;;;;;;;7.07;3.42;;;;;;;16.61;100.00;99782.97;6218907;23;20027;-80
2022/06/07 00:59:34;;;;;;;5.05;3.30;;;;;;;16.57;100.00;99782.41;6217358;23;20016;-80
2022/06/07 01:02:00;;;;;;;5.95;3.40;;;;;;;16.55;100.00;99770.09;6229789;22;20448;-81
2022/06/07 01:04:27;;;;;;;5.45;3.40;;;;;;;16.43;100.00;99755.13;6243514;22;20055;-81
2022/06/07 01:12:25;;;;;;;6.78;3.90;;;;;;;16.27;100.00;99752.84;6226455;22;20043;-81
2022/06/07 01:14:50;;;;;;;7.55;3.15;;;;;;;16.30;100.00;99758.22;6222320;22;20058;-81
2022/06/07 01:17:16;;;;;;;5.63;3.63;;;;;;;16.33;100.00;99750.91;6247206;22;20648;-81
2022/06/07 01:19:42;;;;;;;6.95;3.60;;;;;;;16.27;100.00;99747.22;6247510;22;20039;-87
2022/06/07 01:22:07;;;;;;;4.70;3.08;;;;;;;16.30;100.00;99743.47;6246884;22;20007;-87
2022/06/07 01:24:36;;;;;;;5.75;3.45;;;;;;;16.26;100.00;99745.69;6246956;22;20022;-86
2022/06/07 01:27:06;;;;;;;7.68;3.50;;;;;;;16.21;100.00;99740.78;6247579;22;20019;-87
2022/06/07 01:29:32;;;;;;;4.80;3.38;;;;;;;16.16;100.00;99741.44;6247133;22;20011;-87
2022/06/07 01:31:58;;;;;;;5.68;3.90;;;;;;;16.17;100.00;99743.78;6220172;22;20019;-86
2022/06/07 01:34:26;;;;;;;9.73;3.72;;;;;;;16.20;100.00;99747.63;6219655;22;20019;-86
2022/06/07 01:36:55;;;;;;;6.88;3.80;;;;;;;16.14;100.00;99744.72;6222377;22;20018;-87
2022/06/07 01:42:07;;;;;;;9.43;3.85;;;;;;;16.11;100.00;99731.69;6224831;22;20016;-81
2022/06/07 01:44:38;;;;;;;3.67;3.05;;;;;;;16.18;100.00;99736.13;6273950;22;20342;-81
2022/06/07 01:47:07;;;;;;;4.78;3.50;;;;;;;16.13;100.00;99731.22;6221798;22;20026;-81
2022/06/07 01:49:35;;;;;;;6.55;3.55;;;;;;;16.10;100.00;99732.19;6274468;22;20448;-81
2022/06/07 01:52:01;;;;;;;5.50;3.40;;;;;;;16.10;100.00;99726.56;6246178;22;20008;-81
2022/06/07 01:54:30;;;;;;;7.30;3.80;;;;;;;15.96;100.00;99722.53;6245308;22;20000;-81
2022/06/07 01:56:56;;;;;;;8.10;3.90;;;;;;;15.84;100.00;99721.56;6246821;22;20054;-81
2022/06/07 01:59:22;;;;;;;6.28;3.72;;;;;;;15.78;100.00;99712.28;6222260;22;20003;-81
2022/06/07 02:01:48;;;;;;;7.88;3.75;;;;;;;15.69;100.00;99709.56;6238667;23;20012;-81
2022/06/07 02:04:14;;;;;;;6.10;3.65;;;;;;;15.73;100.00;99718.53;6191065;23;20091;-81
2022/06/07 02:06:39;;;;;;;8.43;4.03;;;;;;;15.58;100.00;99703.78;6217408;23;20023;-81
2022/06/07 02:09:09;;;;;;;6.90;3.60;;;;;;;15.63;100.00;99716.31;6216881;23;20016;-81
2022/06/07 02:11:37;;;;;;;8.82;3.80;;;;;;;15.68;100.00;99713.63;6216527;23;20034;-81
2022/06/07 02:14:06;;;;;;;7.82;4.18;;;;;;;15.66;100.00;99710.53;6243409;23;20024;-81
2022/06/07 02:16:32;;;;;;;6.80;3.58;;;;;;;15.55;100.00;99710.31;6217745;23;20007;-81
2022/06/07 02:18:58;;;;;;;8.30;3.80;;;;;;;15.45;100.00;99711.59;6190538;23;20031;-81
2022/06/07 02:21:28;;;;;;;6.00;3.95;;;;;;;15.32;100.00;99713.91;6217154;23;20099;-81
2022/06/07 02:23:55;;;;;;;7.72;3.88;;;;;;;15.25;100.00;99703.06;6216020;23;20042;-80
2022/06/07 02:26:29;;;;;;;7.10;3.38;;;;;;;15.34;100.00;99706.59;6217139;23;20046;-81
2022/06/07 02:29:01;;;;;;;6.82;3.58;;;;;;;15.40;100.00;99703.91;6189726;23;20442;-81
2022/06/07 02:31:29;;;;;;;5.72;3.50;;;;;;;15.35;100.00;99696.19;6241987;23;20093;-81
2022/06/07 02:33:55;;;;;;;6.95;3.70;;;;;;;15.34;100.00;99689.03;6189611;23;20016;-81
2022/06/07 02:36:21;;;;;;;7.40;3.63;;;;;;;15.35;100.00;99696.19;6190585;23;20012;-81
2022/06/07 02:38:47;;;;;;;6.18;3.58;;;;;;;15.51;100.00;99695.75;6243573;23;20430;-81
2022/06/07 02:41:17;;;;;;;6.15;3.33;;;;;;;15.52;100.00;99700.13;6241979;23;20035;-81
2022/06/07 02:43:44;;;;;;;5.07;3.60;;;;;;;15.54;100.00;99708.78;6216091;23;20012;-81
2022/06/07 02:46:09;;;;;;;6.53;3.55;;;;;;;15.52;100.00;99705.69;6215823;23;20082;-81
2022/06/07 02:48:37;;;;;;;7.65;3.85;;;;;;;15.45;100.00;99700.44;6216003;23;20052;-81
2022/06/07 02:51:04;;;;;;;7.10;3.97;;;;;;;15.53;100.00;99700.88;6189510;23;20440;-81
2022/06/07 02:53:29;;;;;;;7.53;3.53;;;;;;;15.51;100.00;99698.56;6241546;23;20015;-81
2022/06/07 02:55:56;;;;;;;6.10;3.83;;;;;;;15.51;100.00;99703.38;6216072;23;20026;-81
2022/06/07 02:58:24;;;;;;;5.22;3.55;;;;;;;15.50;100.00;99707.41;6216397;23;20011;-81
2022/06/07 03:00:51;;;;;;;5.68;3.67;;;;;;;15.49;100.00;99703.81;6215208;23;20062;-81
2022/06/07 03:03:20;;;;;;;6.60;3.70;;;;;;;15.55;100.00;99713.13;6215144;23;20333;-81
2022/06/07 03:05:46;;;;;;;7.90;3.70;;;;;;;15.55;100.00;99713.13;6215229;23;20027;-81
2022/06/07 03:08:15;;;;;;;6.13;3.70;;;;;;;15.48;100.00;99715.50;6216304;23;20082;-81
2022/06/07 03:10:42;;;;;;;6.88;3.95;;;;;;;15.44;100.00;99712.88;6192152;23;20012;-80
2022/06/07 03:13:08;;;;;;;5.50;3.70;;;;;;;15.44;100.00;99715.69;6242326;23;20015;-81
2022/06/07 03:15:33;;;;;;;6.38;3.63;;;;;;;15.36;100.00;99706.13;6189680;23;20015;-81
2022/06/07 03:18:03;;;;;;;5.55;3.92;;;;;;;15.32;100.00;99708.31;6241339;23;20019;-81
2022/06/07 03:20:37;;;;;;;6.35;3.75;;;;;;;15.27;100.00;99717.34;6240924;23;20016;-81
2022/06/07 03:23:03;;;;;;;5.90;3.58;;;;;;;15.25;100.00;99726.19;6242840;23;20008;-80
2022/06/07 03:25:29;;;;;;;6.15;3.78;;;;;;;15.22;100.00;99720.78;6215595;23;20015;-80
2022/06/07 03:28:00;;;;;;;8.15;3.53;;;;;;;15.24;100.00;99721.09;6214514;23;20042;-81
2022/06/07 03:30:26;;;;;;;5.80;3.35;;;;;;;15.31;100.00;99720.75;6214763;23;20445;-81
2022/06/07 03:32:53;;;;;;;5.93;3.78;;;;;;;15.38;100.00;99728.75;6212751;23;20024;-81
2022/06/07 03:35:20;;;;;;;5.97;3.65;;;;;;;15.40;100.00;99715.09;6214258;23;20016;-81
2022/06/07 03:37:46;;;;;;;6.65;3.67;;;;;;;15.39;100.00;99713.53;6215310;23;20019;-81
2022/06/07 03:40:42;;;;;;;4.03;3.45;;;;;;;15.39;100.00;99705.94;6214781;23;20008;-81
2022/06/07 03:43:20;;;;;;;5.07;3.90;;;;;;;15.57;100.00;99712.66;6215090;23;20032;-81
2022/06/07 03:45:47;;;;;;;6.22;3.90;;;;;;;15.59;100.00;99716.50;6215098;23;20157;-82
2022/06/07 03:48:15;;;;;;;5.22;3.28;;;;;;;15.54;100.00;99708.78;6215594;23;20319;-81
2022/06/07 03:50:41;;;;;;;5.88;3.80;;;;;;;15.57;100.00;99713.41;6241627;23;20008;-82
2022/06/07 03:53:08;;;;;;;6.80;3.85;;;;;;;15.55;100.00;99710.31;6240965;23;20022;-81
2022/06/07 03:55:47;;;;;;;5.55;3.90;;;;;;;15.61;100.00;99716.78;6215188;23;20008;-82
2022/06/07 03:58:14;;;;;;;7.10;4.32;;;;;;;15.65;100.00;99708.97;6190997;23;20012;-82
2022/06/07 04:00:40;;;;;;;6.78;4.40;;;;;;;15.62;100.00;99703.59;6242156;23;20086;-82
2022/06/07 04:03:08;;;;;;;7.40;4.22;;;;;;;15.42;100.00;99667.84;6215145;23;20316;-83
2022/06/07 04:05:41;;;;;;;8.13;4.40;;;;;;;15.64;100.00;99685.09;6239992;23;20457;-82
2022/06/07 04:08:11;;;;;;;8.25;3.88;;;;;;;15.80;100.00;99686.66;6214819;23;20016;-82
2022/06/07 04:10:52;;;;;;;7.03;3.80;;;;;;;15.92;100.00;99682.03;6215670;23;20008;-80
2022/06/07 04:13:23;;;;;;;7.50;3.97;;;;;;;15.98;100.00;99677.28;6215983;23;20438;-80
2022/06/07 04:15:52;;;;;;;6.15;4.32;;;;;;;16.10;100.00;99667.81;6190960;23;20012;-82
2022/06/07 04:18:18;;;;;;;7.22;4.55;;;;;;;16.19;100.00;99667.72;6216289;23;20004;-81
2022/06/07 04:20:44;;;;;;;6.28;4.30;;;;;;;16.35;100.00;99675.63;6215178;23;20027;-80
2022/06/07 04:23:19;;;;;;;9.18;4.22;;;;;;;16.42;100.00;99664.00;6214978;23;20048;-82
2022/06/07 04:25:45;;;;;;;6.75;4.35;;;;;;;16.52;100.00;99662.66;6215517;23;20405;-82
2022/06/07 04:28:13;;;;;;;5.25;4.43;;;;;;;16.57;100.00;99667.59;6191422;23;20028;-83
2022/06/07 04:30:45;;;;;;;6.50;4.30;;;;;;;16.68;100.00;99670.56;6190252;23;20020;-82
2022/06/07 04:33:12;;;;;;;6.43;4.28;;;;;;;16.74;100.00;99668.59;6188239;23;20039;-83
2022/06/07 04:35:38;;;;;;;4.90;4.40;;;;;;;16.84;100.00;99662.84;6214623;23;20012;-82
2022/06/07 04:38:04;;;;;;;5.38;4.30;;;;;;;16.95;100.00;99665.81;6190035;23;20020;-82
2022/06/07 04:40:40;;;;;;;6.20;4.25;;;;;;;17.08;100.00;99666.22;6213896;23;20362;-82
2022/06/07 04:43:09;;;;;;;8.57;4.50;;;;;;;17.19;100.00;99674.78;6190713;23;20028;-82
2022/06/07 04:45:37;;;;;;;6.53;4.80;;;;;;;17.31;100.00;99682.06;6189943;23;20357;-82
2022/06/07 04:48:12;;;;;;;5.90;4.88;;;;;;;17.45;100.00;99669.22;6212427;22;20012;-82
2022/06/07 04:51:11;;;;;;;4.80;4.22;;;;;;;17.54;100.00;99678.25;6216784;23;20017;-86
2022/06/07 04:53:43;;;;;;;7.57;4.40;;;;;;;17.61;100.00;99666.63;6212656;23;20365;-86
2022/06/07 04:56:15;;;;;;;5.38;4.30;;;;;;;17.68;100.00;99671.78;6212043;23;20008;-86
2022/06/07 04:58:41;;;;;;;5.68;4.35;;;;;;;17.78;100.00;99675.22;6186825;23;20086;-84
2022/06/07 05:01:11;;;;;;;5.57;4.65;;;;;;;17.84;100.00;99661.22;6238919;22;20012;-88
2022/06/07 05:03:37;;;;;;;10.32;7.32;;;;;;;17.94;100.00;99671.03;6211047;23;20020;-89
2022/06/07 05:06:22;;;;;;;6.93;4.18;;;;;;;17.98;100.00;99665.97;6209375;23;20012;-90
2022/06/07 05:08:56;;;;;;;5.18;3.78;;;;;;;18.06;100.00;99667.06;6186279;23;20016;-88
2022/06/07 05:11:24;;;;;;;7.05;4.07;;;;;;;18.20;100.00;99665.41;6210647;23;20446;-88
2022/06/07 05:13:56;;;;;;;5.30;4.03;;;;;;;18.34;100.00;99679.28;6210029;22;20008;-87
2022/06/07 05:16:22;;;;;;;7.30;4.05;;;;;;;18.44;100.00;99683.44;6185528;23;20020;-87
2022/06/07 05:18:49;;;;;;;6.35;4.10;;;;;;;18.52;100.00;99676.13;6213025;23;20016;-87
2022/06/07 05:21:15;;;;;;;4.90;4.07;;;;;;;18.63;100.00;99672.63;6212808;23;20008;-88
2022/06/07 05:23:45;;;;;;;9.35;4.10;;;;;;;18.73;100.00;99673.19;6213525;23;20019;-89
2022/06/07 05:26:24;;;;;;;9.10;5.20;;;;;;;18.87;100.00;99683.50;6213544;23;20004;-89
2022/06/07 05:28:50;;;;;;;5.72;4.22;;;;;;;18.91;100.00;99670.75;6214751;23;20012;-89
2022/06/07 05:31:16;;;;;;;4.95;4.07;;;;;;;19.06;100.00;99678.97;6243709;23;20074;-89
2022/06/07 05:33:47;;;;;;;6.10;4.25;;;;;;;19.20;100.00;99682.88;6215517;23;20450;-88
2022/06/07 05:36:15;;;;;;;6.10;4.50;;;;;;;19.30;100.00;99670.91;6216634;23;20015;-89
2022/06/07 05:38:42;;;;;;;4.97;4.47;;;;;;;19.47;100.00;99682.25;6215778;23;20020;-88
2022/06/07 05:41:23;;;;;;;7.03;5.47;;;;;;;19.71;100.00;99676.94;6218111;23;20008;-89
2022/06/07 05:43:51;;;;;;;6.97;5.72;;;;;;;19.92;100.00;99681.06;6189590;23;20016;-86
2022/06/07 05:46:21;;;;;;;7.05;6.30;;;;;;;20.02;100.00;99681.56;6215889;23;20000;-88
2022/06/07 05:48:55;;;;;;;7.15;6.30;;;;;;;20.26;100.00;99681.09;6215846;23;20012;-88
2022/06/07 05:51:32;;;;;;;6.10;4.65;;;;;;;20.42;100.00;99681.09;6216982;23;20009;-88
2022/06/07 05:54:00;;;;;;;6.93;5.45;;;;;;;20.64;100.00;99682.38;6190976;23;20446;-89
2022/06/07 05:56:26;;;;;;;5.88;4.65;;;;;;;20.86;100.00;99682.34;6217530;23;20341;-88
2022/06/07 05:58:53;;;;;;;6.88;4.50;;;;;;;21.10;99.43;99673.28;6215832;23;20446;-89
2022/06/07 06:01:19;;;;;;;7.57;4.85;;;;;;;21.43;97.78;99683.69;6217678;22;20008;-88
2022/06/07 06:03:49;;;;;;;6.50;5.07;;;;;;;21.58;98.38;99689.75;6215480;23;20012;-89
2022/06/07 06:06:16;;;;;;;7.20;4.80;;;;;;;21.72;97.46;99683.00;6215738;23;20040;-88
2022/06/07 06:11:35;;;;;;;6.40;4.40;;;;;;;22.17;94.51;99684.25;6215195;23;20024;-89
2022/06/07 06:14:19;;;;;;;5.20;4.13;;;;;;;22.37;93.39;99685.91;6214941;23;20450;-88
2022/06/07 06:16:49;;;;;;;5.65;4.50;;;;;;;22.63;93.16;99680.53;6200449;23;20012;-82
2022/06/07 06:19:24;;;;;;;8.65;4.03;;;;;;;22.77;91.52;99696.34;6168287;23;20510;-83
2022/06/07 06:21:50;;;;;;;5.85;4.18;;;;;;;23.01;91.33;99683.50;6213715;23;20019;-84
2022/06/07 06:24:23;;;;;;;9.48;4.70;;;;;;;23.00;91.32;99687.63;6191222;23;20040;-84
2022/06/07 06:26:48;;;;;;;6.80;4.63;;;;;;;22.82;92.54;99689.09;6216020;23;20043;-81
2022/06/07 06:29:19;;;;;;;5.30;4.45;;;;;;;23.01;91.33;99680.69;6214829;23;20007;-81
2022/06/07 06:31:47;;;;;;;6.13;3.92;;;;;;;23.31;89.89;99672.06;6216341;23;20008;-81
2022/06/07 06:34:16;;;;;;;8.25;3.92;;;;;;;23.50;88.52;99664.38;6216438;23;20095;-81
2022/06/07 06:36:42;;;;;;;5.68;4.40;;;;;;;23.50;87.35;99681.38;6243359;23;20078;-81
2022/06/07 06:39:07;;;;;;;7.18;4.25;;;;;;;23.58;87.77;99682.28;6242560;23;20012;-81
2022/06/07 06:41:43;;;;;;;4.35;3.72;;;;;;;23.61;86.25;99675.56;6192595;23;20091;-81
2022/06/07 06:44:10;;;;;;;4.30;3.67;;;;;;;23.87;84.25;99678.53;6243489;23;20098;-81
2022/06/07 06:46:42;;;;;;;5.32;3.70;;;;;;;23.72;82.93;99675.41;6244331;23;20054;-81
2022/06/07 06:49:11;;;;;;;4.20;3.80;;;;;;;23.77;84.04;99668.91;6242399;23;20412;-81
2022/06/07 06:51:37;;;;;;;4.45;3.30;;;;;;;24.23;83.11;99666.91;6191912;23;20004;-81
2022/06/07 06:54:05;;;;;;;8.38;3.75;;;;;;;24.48;78.50;99663.38;6215636;23;20019;-81
2022/06/07 06:56:36;;;;;;;4.75;3.70;;;;;;;24.60;79.57;99661.88;6193021;23;20016;-81
2022/06/07 06:59:09;;;;;;;5.10;3.55;;;;;;;24.74;79.18;99665.50;6215677;23;20012;-82
2022/06/07 07:01:38;;;;;;;4.47;3.38;;;;;;;24.95;76.50;99660.72;6214758;23;20073;-82
2022/06/07 07:04:25;;;;;;;3.92;3.15;;;;;;;25.00;77.90;99659.84;6215098;23;20012;-82
2022/06/07 07:06:52;;;;;;;4.80;3.53;;;;;;;24.92;78.21;99653.31;6215638;23;20349;-82
2022/06/07 07:09:24;;;;;;;4.22;3.42;;;;;;;24.95;76.97;99646.53;6191094;23;20350;-82
2022/06/07 07:11:53;;;;;;;3.72;2.95;;;;;;;25.31;76.08;99661.03;6213221;23;20042;-83
2022/06/07 07:14:29;;;;;;;5.03;3.25;;;;;;;25.60;74.89;99652.72;6216679;23;20078;-83
2022/06/07 07:16:57;;;;;;;3.50;3.17;;;;;;;25.53;73.02;99642.78;6216670;23;20223;-83
2022/06/07 07:19:23;;;;;;;5.60;2.95;;;;;;;25.74;71.81;99654.19;6216954;23;20015;-83
2022/06/07 07:21:50;;;;;;;3.72;2.90;;;;;;;25.69;70.78;99650.16;6216666;23;20079;-89
2022/06/07 07:24:19;;;;;;;3.45;2.70;;;;;;;25.84;70.85;99661.69;6217137;23;20390;-88
2022/06/07 07:26:49;;;;;;;;;;;;;;;25.84;67.55;99667.34;6217868;23;20446;-89
2022/06/07 07:29:20;;;;;;;5.28;2.50;;;;;;;25.93;66.05;99666.91;6217226;23;19926;-88
2022/06/07 07:31:47;;;;;;;5.03;2.70;;;;;;;25.73;65.56;99667.63;6217465;23;20012;-89
2022/06/07 07:34:16;;;;;;;4.30;2.65;;;;;;;25.99;65.06;99667.53;6217084;23;20008;-88
2022/06/07 07:36:45;;;;;;;3.65;2.30;;;;;;;26.39;64.57;99658.84;6218585;23;20008;-88
2022/06/07 07:39:12;;;;;;;2.92;2.63;;;;;;;26.49;62.21;99654.16;6217084;23;20434;-89
2022/06/07 07:41:39;;;;;;;2.90;2.42;;;;;;;26.37;61.41;99667.91;6216913;23;20015;-89
2022/06/07 07:44:11;;;;;;;3.85;2.58;;;;;;;25.74;62.31;99657.78;6191347;23;20023;-89
2022/06/07 07:46:38;;;;;;;2.70;2.40;;;;;;;25.92;62.75;99656.84;6217070;23;20150;-89
2022/06/07 07:49:06;;;;;;;2.83;2.45;;;;;;;26.22;60.21;99662.09;6243478;23;20426;-88
2022/06/07 07:51:35;;;;;;;3.30;2.40;;;;;;;25.94;61.35;99659.91;6216849;23;20004;-89
2022/06/07 07:54:03;;;;;;;4.55;2.72;;;;;;;25.86;60.66;99661.91;6242915;23;20058;-88
2022/06/07 07:56:29;;;;;;;3.75;2.45;;;;;;;25.79;61.06;99653.31;6191228;23;20057;-88
2022/06/07 07:58:56;;;;;;;6.35;2.80;;;;;;;25.70;60.95;99650.91;6216489;23;20460;-88
2022/06/07 08:01:25;;;;;;;3.40;2.50;;;;;;;25.96;60.94;99665.78;6216456;22;20024;-88
2022/06/07 08:03:52;;;;;;;3.67;2.63;;;;;;;26.32;61.01;99656.69;6242612;23;20342;-88
2022/06/07 08:06:22;;;;;;;3.33;2.30;;;;;;;26.65;59.70;99666.44;6192586;23;20012;-86
2022/06/07 08:08:50;;;;;;;3.15;2.40;;;;;;;26.66;57.48;99659.41;6243345;23;20012;-87
2022/06/07 08:11:18;;;;;;;3.22;2.60;;;;;;;26.27;57.26;99651.91;6243153;23;20015;-88
2022/06/07 08:13:44;;;;;;;6.05;2.67;;;;;;;26.12;59.39;99663.88;6216496;23;20007;-87
2022/06/07 08:16:09;;;;;;;4.30;3.03;;;;;;;26.41;59.22;99654.09;6216448;23;20008;-87
2022/06/07 08:18:36;;;;;;;4.72;2.90;;;;;;;26.60;58.91;99662.41;6243114;23;20385;-87
2022/06/07 08:21:05;;;;;;;5.03;2.65;;;;;;;26.73;58.08;99653.78;6243514;23;20043;-87
2022/06/07 08:23:31;;;;;;;5.38;2.83;;;;;;;26.85;56.76;99655.03;6216082;23;20046;-87
2022/06/07 08:25:57;;;;;;;4.35;2.33;;;;;;;27.31;56.10;99652.44;6216477;23;20016;-87
2022/06/07 08:28:23;;;;;;;4.03;2.40;;;;;;;27.19;54.62;99656.94;6191021;23;20082;-88
2022/06/07 08:30:49;;;;;;;3.08;2.28;;;;;;;27.25;54.60;99654.69;6216264;23;20426;-88
2022/06/07 08:38:54;;;;;;;3.10;2.42;;;;;;;27.02;52.11;99648.09;6242719;23;20087;-87
2022/06/07 08:41:26;;;;;;;3.80;2.40;;;;;;;26.53;53.38;99648.16;6243508;23;20035;-87
2022/06/07 08:43:52;;;;;;;2.83;2.45;;;;;;;26.95;53.50;99643.13;6216104;23;20019;-88
2022/06/07 08:46:19;;;;;;;2.78;2.40;;;;;;;27.36;52.47;99643.72;6216379;23;20016;-86
2022/06/07 08:48:45;;;;;;;4.30;2.65;;;;;;;26.58;53.61;99636.59;6216599;23;20030;-86
2022/06/07 08:51:25;;;;;;;3.58;2.30;;;;;;;27.11;52.73;99636.19;6216494;23;20012;-87
2022/06/07 08:53:56;;;;;;;3.40;2.30;;;;;;;27.59;51.64;99640.22;6216154;23;20012;-88
2022/06/07 08:56:28;;;;;;;2.97;2.33;;;;;;;26.95;49.52;99631.75;6216856;23;20815;-89
2022/06/07 08:58:57;;;;;;;3.15;2.30;;;;;;;27.21;50.36;99635.13;6191097;23;20460;-82
2022/06/07 09:01:33;;;;;;;3.90;2.55;;;;;;;26.93;49.76;99629.47;6217026;22;20012;-82
2022/06/07 09:04:18;;;;;;;4.55;2.40;;;;;;;27.21;49.19;99635.13;6244519;23;20197;-82
2022/06/07 09:06:46;;;;;;;4.22;2.30;;;;;;;27.10;49.18;99623.28;6245074;23;20020;-82
2022/06/07 09:09:14;;;;;;;3.17;2.28;;;;;;;27.40;49.87;99622.66;6193046;23;20008;-82
2022/06/07 09:14:44;;;;;;;4.65;2.45;;;;;;;27.07;48.81;99615.88;6196797;23;20040;-82
2022/06/07 09:17:18;;;;;;;2.60;2.22;;;;;;;27.16;48.26;99621.03;6244553;23;20532;-82
2022/06/07 09:19:46;;;;;;;2.90;2.10;;;;;;;27.16;46.75;99616.13;6244794;23;20064;-82
2022/06/07 09:22:23;;;;;;;4.60;2.10;;;;;;;27.06;46.36;99614.34;6244991;23;20008;-82
2022/06/07 09:24:55;;;;;;;3.15;2.53;;;;;;;27.42;47.90;99615.06;6244373;23;20012;-82
2022/06/07 09:27:24;;;;;;;2.83;2.40;;;;;;;27.89;45.17;99611.03;6245006;23;20427;-82
2022/06/07 09:29:56;;;;;;;2.13;1.90;;;;;;;27.97;44.27;99600.41;6244229;23;20326;-82
2022/06/07 09:32:25;;;;;;;2.80;2.20;;;;;;;27.89;44.17;99608.19;6245193;23;20320;-82
2022/06/07 09:35:03;;;;;;;2.67;2.20;;;;;;;28.09;44.75;99598.75;6218127;23;20004;-82
2022/06/07 09:37:47;;;;;;;3.47;2.13;;;;;;;28.09;45.57;99595.88;6217912;23;20039;-82
2022/06/07 09:40:30;;;;;;;2.72;2.28;;;;;;;27.43;46.12;99599.50;6244526;23;20377;-82
2022/06/07 09:43:19;;;;;;;2.50;2.30;;;;;;;27.65;46.02;99606.63;6244339;23;20016;-82
2022/06/07 09:45:45;;;;;;;2.55;2.20;;;;;;;27.66;46.77;99582.53;6243811;22;20433;-82
2022/06/07 09:48:32;;;;;;;4.50;2.67;;;;;;;28.40;45.30;99588.84;6244328;23;20012;-82
2022/06/07 09:51:12;;;;;;;4.20;2.35;;;;;;;28.10;45.34;99594.56;6244412;23;20012;-82
2022/06/07 09:53:41;;;;;;;2.78;2.05;;;;;;;28.56;46.45;99584.63;6217833;23;20012;-82
2022/06/07 09:56:28;;;;;;;3.00;2.13;;;;;;;29.15;42.89;99579.38;6244426;23;20426;-82
2022/06/07 09:59:26;;;;;;;3.42;1.90;;;;;;;29.17;42.47;99573.06;6217395;23;20450;-82
2022/06/07 10:02:20;;;;;;;2.88;2.20;;;;;;;28.79;40.46;99575.31;6136443;23;20026;-82
2022/06/07 10:05:12;;;;;;;2.67;1.90;;;;;;;28.46;38.81;99572.31;6244191;22;20131;-82
2022/06/07 10:07:44;;;;;;;2.60;2.17;;;;;;;28.42;42.31;99549.09;6244454;23;20024;-83
2022/06/07 10:10:34;;;;;;;2.28;1.85;;;;;;;28.44;41.61;99554.97;6244071;23;20012;-83
2022/06/07 10:13:15;;;;;;;3.10;2.60;;;;;;;28.69;39.97;99563.72;6243581;23;20020;-82
2022/06/07 10:16:07;;;;;;;2.58;1.90;;;;;;;28.81;40.93;99566.91;6243874;23;20012;-82
2022/06/07 10:19:11;;;;;;;3.13;1.90;;;;;;;28.34;39.63;99559.75;6244253;23;20491;-82
2022/06/07 10:21:53;;;;;;;2.33;1.77;;;;;;;28.08;40.17;99548.72;6216577;23;20078;-82
2022/06/07 10:24:38;;;;;;;1.98;1.70;;;;;;;28.51;40.34;99567.72;6217267;23;20488;-82
2022/06/07 10:27:16;;;;;;;2.20;1.75;;;;;;;28.85;38.60;99545.22;6244202;23;20338;-82
2022/06/07 10:29:54;;;;;;;3.05;1.85;;;;;;;29.55;38.43;99542.22;6216964;23;20019;-82
2022/06/07 10:32:50;;;;;;;3.35;2.20;;;;;;;30.31;36.53;99553.09;6244226;23;20050;-83
2022/06/07 10:35:41;;;;;;;3.35;1.60;;;;;;;30.25;35.44;99538.25;6217440;23;20039;-83
2022/06/07 10:38:39;;;;;;;3.42;1.58;;;;;;;30.29;35.56;99544.31;6244314;23;20020;-83
2022/06/07 10:41:43;;;;;;;2.55;1.80;;;;;;;28.87;37.96;99545.41;6244068;23;20373;-83
2022/06/07 10:44:35;;;;;;;2.88;1.73;;;;;;;29.14;38.91;99537.09;6091733;23;20019;-82
2022/06/07 10:47:12;;;;;;;1.60;1.50;;;;;;;29.45;40.12;99532.75;6092207;23;20022;-82
2022/06/07 10:49:47;;;;;;;3.85;1.70;;;;;;;29.26;39.66;99526.75;6158562;23;20454;-82
2022/06/07 10:52:25;;;;;;;3.08;1.90;;;;;;;29.34;41.47;99529.59;6217161;23;20047;-82
2022/06/07 10:54:56;;;;;;;3.05;2.67;;;;;;;29.34;41.06;99524.63;6242769;23;20070;-89
2022/06/07 10:57:29;;;;;;;2.03;1.83;;;;;;;28.31;43.00;99509.53;6216100;23;20411;-88
2022/06/07 10:59:56;;;;;;;3.72;1.90;;;;;;;28.39;43.73;99516.00;6243129;23;20338;-89
2022/06/07 11:02:40;;;;;;;2.10;1.90;;;;;;;28.56;43.28;99513.31;6242748;22;20012;-89
2022/06/07 11:11:18;;;;;;;3.58;2.10;;;;;;;28.73;42.53;99496.34;6221147;23;20016;-88
2022/06/07 11:13:59;;;;;;;2.63;2.00;;;;;;;28.89;42.16;99493.44;6217457;23;20012;-88
2022/06/07 11:16:35;;;;;;;2.58;2.05;;;;;;;28.73;41.80;99487.03;6242615;23;20214;-89
2022/06/07 11:19:03;;;;;;;3.30;1.98;;;;;;;29.39;41.12;99477.94;6242950;23;20016;-89
2022/06/07 11:21:31;;;;;;;4.63;2.00;;;;;;;29.76;40.57;99475.38;6215799;23;20007;-89
2022/06/07 11:24:07;;;;;;;2.03;1.83;;;;;;;29.51;39.35;99479.00;6242196;23;20058;-90
2022/06/07 11:26:58;;;;;;;2.63;1.80;;;;;;;29.30;41.17;99478.56;6191210;23;20024;-89
2022/06/07 11:29:29;;;;;;;2.65;2.30;;;;;;;28.99;41.15;99485.78;6223628;22;20442;-89
2022/06/07 11:31:55;;;;;;;3.45;2.20;;;;;;;29.05;41.17;99480.59;6241819;23;20453;-89
2022/06/07 11:34:30;;;;;;;2.83;1.90;;;;;;;29.07;41.64;99469.38;6215206;23;20079;-89
2022/06/07 11:37:21;;;;;;;2.08;1.75;;;;;;;29.36;41.96;99470.53;6215858;23;20312;-89
2022/06/07 11:39:53;;;;;;;2.75;1.90;;;;;;;28.73;40.94;99464.19;6215456;23;20464;-88
2022/06/07 11:42:31;;;;;;;3.63;2.00;;;;;;;28.61;42.29;99466.69;6242484;23;20012;-90
2022/06/07 11:45:05;;;;;;;2.20;1.70;;;;;;;29.35;42.64;99454.75;6243606;23;20039;-88
2022/06/07 11:47:46;;;;;;;6.55;2.75;;;;;;;29.85;41.43;99454.72;6243004;23;20011;-88
2022/06/07 11:50:30;;;;;;;3.30;2.30;;;;;;;29.79;40.43;99445.63;6242869;23;20123;-81
2022/06/07 11:53:00;;;;;;;2.35;2.10;;;;;;;29.83;39.44;99451.69;6216717;23;20012;-81
2022/06/07 11:55:38;;;;;;;2.10;1.67;;;;;;;29.45;40.43;99446.28;6215213;23;20031;-81
2022/06/07 11:58:07;;;;;;;2.20;2.00;;;;;;;29.40;40.45;99439.44;6215877;23;20019;-81
2022/06/07 12:00:34;;;;;;;2.88;1.90;;;;;;;29.52;40.67;99449.06;6215392;23;20012;-81
2022/06/07 12:03:17;;;;;;;2.03;1.90;;;;;;;29.86;40.56;99442.72;6240808;22;20019;-81
2022/06/07 12:05:48;;;;;;;2.90;1.80;;;;;;;29.93;40.61;99441.13;6241927;23;20016;-81
2022/06/07 12:08:23;;;;;;;3.15;2.00;;;;;;;30.04;41.53;99443.53;6215069;23;20022;-81
2022/06/07 12:11:20;;;;;;;2.50;1.98;;;;;;;30.04;39.30;99440.66;6215240;23;20524;-82
2022/06/07 12:13:51;;;;;;;4.93;2.05;;;;;;;30.16;40.86;99427.38;6215526;23;20019;-82